createdAt,value
2022-10-18T00:02:14.582Z,25.40
2022-10-18T00:05:00.976Z,26.90
2022-10-18T00:07:46.723Z,26.00
2022-10-18T00:10:32.917Z,27.25
2022-10-18T00:13:20.451Z,26.17
2022-10-18T00:16:12.288Z,26.87
2022-10-18T00:18:58.802Z,26.52
2022-10-18T00:24:36.264Z,27.17
2022-10-18T00:27:22.060Z,27.55
2022-10-18T00:30:09.497Z,28.20
2022-10-18T00:32:55.529Z,27.35
2022-10-18T00:35:42.018Z,28.77
2022-10-18T00:38:28.188Z,26.88
2022-10-18T00:41:17.693Z,27.30
2022-10-18T00:44:12.708Z,26.23
2022-10-18T00:47:05.529Z,27.00
2022-10-18T00:49:56.274Z,26.30
2022-10-18T00:52:51.909Z,27.27
2022-10-18T00:55:37.946Z,26.08
2022-10-18T00:58:23.949Z,27.08
2022-10-18T01:01:10.126Z,26.30
2022-10-18T01:03:57.959Z,27.25
2022-10-18T01:06:58.823Z,27.65
2022-10-18T01:10:15.308Z,27.60
2022-10-18T01:13:23.460Z,26.83
2022-10-18T01:16:32.881Z,27.52
2022-10-18T01:19:47.581Z,27.92
2022-10-18T01:23:04.067Z,25.98
2022-10-18T01:26:19.632Z,27.58
2022-10-18T01:29:33.320Z,27.83
2022-10-18T01:32:24.890Z,27.63
2022-10-18T01:35:35.066Z,26.63
2022-10-18T01:38:22.704Z,26.80
2022-10-18T01:41:14.786Z,27.43
2022-10-18T01:44:05.213Z,26.38
2022-10-18T01:46:54.726Z,26.65
2022-10-18T01:49:40.618Z,27.58
2022-10-18T01:52:27.620Z,26.77
2022-10-18T01:55:13.298Z,27.13
2022-10-18T01:58:20.986Z,27.50
2022-10-18T02:01:36.406Z,26.65
2022-10-18T02:04:46.755Z,26.92
2022-10-18T02:07:39.994Z,26.05
2022-10-18T02:10:34.060Z,28.23
2022-10-18T02:13:22.917Z,28.48
2022-10-18T02:16:28.619Z,29.05
2022-10-18T02:19:33.115Z,29.98
2022-10-18T02:22:20.313Z,28.33
2022-10-18T02:25:11.991Z,30.10
2022-10-18T02:27:59.010Z,28.33
2022-10-18T02:31:06.550Z,30.00
2022-10-18T02:34:16.862Z,29.38
2022-10-18T02:37:03.209Z,29.60
2022-10-18T02:39:50.956Z,30.08
2022-10-18T02:42:39.903Z,29.77
2022-10-18T02:45:26.865Z,28.38
2022-10-18T02:48:12.703Z,27.67
2022-10-18T02:50:59.309Z,29.25
2022-10-18T02:53:45.165Z,28.52
2022-10-18T02:56:31.165Z,28.93
2022-10-18T02:59:16.951Z,27.52
2022-10-18T03:02:03.264Z,27.02
2022-10-18T03:04:49.952Z,30.35
2022-10-18T03:07:35.806Z,29.33
2022-10-18T03:10:21.452Z,26.52
2022-10-18T03:13:07.138Z,28.60
2022-10-18T03:15:53.018Z,28.60
2022-10-18T03:18:39.289Z,27.65
2022-10-18T03:21:25.101Z,27.10
2022-10-18T03:24:11.012Z,27.63
2022-10-18T03:26:56.836Z,28.40
2022-10-18T03:29:42.365Z,28.60
2022-10-18T03:32:28.237Z,28.17
2022-10-18T03:35:14.291Z,27.25
2022-10-18T03:38:00.121Z,24.87
2022-10-18T03:40:46.086Z,24.80
2022-10-18T03:43:32.276Z,25.55
2022-10-18T03:46:18.759Z,24.48
2022-10-18T03:49:05.121Z,25.35
2022-10-18T03:51:51.246Z,24.63
2022-10-18T03:54:37.038Z,23.98
2022-10-18T03:57:23.205Z,25.77
2022-10-18T04:00:09.753Z,24.53
2022-10-18T04:02:58.819Z,25.20
2022-10-18T04:05:46.624Z,24.55
2022-10-18T04:08:32.616Z,24.60
2022-10-18T04:11:18.823Z,25.35
2022-10-18T04:14:05.240Z,25.70
2022-10-18T04:16:51.028Z,25.03
2022-10-18T04:19:37.230Z,24.92
2022-10-18T04:22:23.672Z,24.80
2022-10-18T04:25:10.440Z,25.38
2022-10-18T04:27:56.641Z,24.52
2022-10-18T04:30:42.938Z,24.58
2022-10-18T04:33:28.621Z,25.45
2022-10-18T04:36:14.651Z,24.50
2022-10-18T04:39:00.437Z,25.55
2022-10-18T04:41:47.136Z,25.40
2022-10-18T04:44:32.757Z,25.00
2022-10-18T04:47:19.078Z,26.27
2022-10-18T04:50:06.185Z,25.63
2022-10-18T04:52:53.640Z,25.80
2022-10-18T04:55:39.830Z,24.77
2022-10-18T04:58:27.110Z,25.23
2022-10-18T05:01:13.819Z,25.77
2022-10-18T05:03:59.364Z,25.25
2022-10-18T05:06:44.956Z,25.23
2022-10-18T05:09:30.786Z,24.92
2022-10-18T05:12:17.729Z,25.08
2022-10-18T05:15:03.970Z,24.17
2022-10-18T05:17:50.045Z,24.43
2022-10-18T05:20:36.126Z,23.55
2022-10-18T05:23:22.945Z,23.88
2022-10-18T05:26:09.804Z,23.45
2022-10-18T05:28:55.624Z,23.13
2022-10-18T05:31:41.540Z,22.98
2022-10-18T05:34:31.808Z,21.17
2022-10-18T05:37:18.675Z,22.30
2022-10-18T05:40:05.078Z,22.85
2022-10-18T05:42:54.095Z,22.08
2022-10-18T05:45:39.677Z,21.38
2022-10-18T05:48:26.570Z,21.92
2022-10-18T05:51:12.278Z,22.33
2022-10-18T05:53:58.864Z,22.08
2022-10-18T05:56:45.258Z,21.90
2022-10-18T05:59:31.654Z,21.43
2022-10-18T06:02:17.770Z,18.67
2022-10-18T06:05:03.782Z,19.33
2022-10-18T06:07:50.419Z,17.77
2022-10-18T06:10:38.871Z,18.33
2022-10-18T06:13:25.243Z,17.27
2022-10-18T06:16:12.561Z,16.38
2022-10-18T06:18:59.925Z,15.87
2022-10-18T06:21:45.764Z,14.93
2022-10-18T06:24:32.270Z,14.88
2022-10-18T06:27:18.773Z,14.73
2022-10-18T06:30:05.657Z,15.05
2022-10-18T06:32:52.221Z,14.32
2022-10-18T06:35:38.177Z,13.35
2022-10-18T06:38:24.201Z,12.77
2022-10-18T06:41:10.393Z,13.35
2022-10-18T06:43:58.660Z,12.82
2022-10-18T06:46:46.187Z,12.80
2022-10-18T06:49:32.542Z,12.98
2022-10-18T06:52:18.731Z,12.82
2022-10-18T06:55:08.990Z,12.63
2022-10-18T06:57:55.321Z,13.05
2022-10-18T07:00:41.261Z,12.93
2022-10-18T07:03:27.304Z,12.95
2022-10-18T07:06:15.913Z,12.32
2022-10-18T07:09:03.207Z,13.30
2022-10-18T07:11:49.949Z,13.03
2022-10-18T07:14:35.701Z,13.32
2022-10-18T07:17:21.274Z,13.02
2022-10-18T07:20:07.738Z,13.70
2022-10-18T07:22:57.155Z,13.90
2022-10-18T07:25:43.080Z,13.90
2022-10-18T07:28:29.994Z,13.20
2022-10-18T07:31:15.775Z,14.52
2022-10-18T07:34:07.139Z,14.05
2022-10-18T07:36:53.108Z,15.27
2022-10-18T07:39:38.988Z,15.02
2022-10-18T07:42:24.962Z,15.13
2022-10-18T07:45:12.556Z,14.77
2022-10-18T07:47:59.034Z,14.93
2022-10-18T07:50:45.852Z,15.57
2022-10-18T07:53:31.625Z,14.03
2022-10-18T07:56:21.837Z,15.43
2022-10-18T07:59:11.184Z,15.35
2022-10-18T08:01:57.100Z,16.02
2022-10-18T08:04:43.737Z,16.42
2022-10-18T08:07:29.691Z,15.63
2022-10-18T08:10:16.435Z,16.25
2022-10-18T08:13:02.606Z,16.33
2022-10-18T08:15:48.775Z,15.93
2022-10-18T08:18:36.610Z,17.02
2022-10-18T08:21:22.557Z,15.50
2022-10-18T08:24:08.797Z,15.57
2022-10-18T08:26:54.934Z,16.15
2022-10-18T08:29:41.133Z,17.00
2022-10-18T08:32:28.480Z,16.05
2022-10-18T08:35:14.326Z,16.33
2022-10-18T08:38:00.317Z,16.73
2022-10-18T08:40:46.294Z,15.95
2022-10-18T08:43:46.211Z,15.98
2022-10-18T08:46:38.296Z,15.85
2022-10-18T08:49:31.756Z,15.27
2022-10-18T08:52:35.844Z,15.00
2022-10-18T08:55:30.056Z,15.75
2022-10-18T08:58:18.502Z,14.93
2022-10-18T09:01:08.490Z,14.48
2022-10-18T09:04:16.854Z,14.23
2022-10-18T09:07:05.831Z,14.80
2022-10-18T09:10:05.183Z,13.82
2022-10-18T09:12:50.953Z,14.15
2022-10-18T09:15:45.154Z,14.23
2022-10-18T09:19:04.160Z,13.68
2022-10-18T09:21:53.964Z,13.13
2022-10-18T09:25:20.268Z,14.15
2022-10-18T09:28:23.365Z,13.55
2022-10-18T09:31:46.576Z,14.15
2022-10-18T09:34:40.404Z,13.48
2022-10-18T09:37:32.846Z,13.60
2022-10-18T09:40:26.938Z,13.98
2022-10-18T09:43:19.334Z,12.68
2022-10-18T09:46:06.270Z,13.43
2022-10-18T09:49:02.003Z,13.45
2022-10-18T09:51:49.717Z,13.52
2022-10-18T09:54:42.282Z,12.77
2022-10-18T09:57:57.477Z,12.90
2022-10-18T10:00:52.780Z,12.57
2022-10-18T10:03:39.063Z,13.38
2022-10-18T10:06:28.124Z,12.90
2022-10-18T10:09:15.989Z,12.65
2022-10-18T10:12:03.135Z,12.48
2022-10-18T10:14:49.038Z,12.35
2022-10-18T10:17:35.155Z,11.88
2022-10-18T10:20:25.899Z,12.02
2022-10-18T10:23:37.968Z,12.32
2022-10-18T10:26:25.089Z,11.65
2022-10-18T10:29:48.403Z,11.40
2022-10-18T10:32:47.602Z,10.98
2022-10-18T10:35:53.197Z,11.23
2022-10-18T10:38:40.092Z,10.73
2022-10-18T10:41:26.521Z,10.63
2022-10-18T10:44:21.095Z,10.77
2022-10-18T10:47:08.107Z,9.90
2022-10-18T10:49:57.091Z,10.13
2022-10-18T10:52:48.082Z,9.85
2022-10-18T10:55:36.565Z,9.38
2022-10-18T10:58:24.010Z,9.27
2022-10-18T11:01:29.256Z,9.32
2022-10-18T11:04:30.159Z,10.48
2022-10-18T11:07:25.300Z,10.85
2022-10-18T11:10:11.204Z,10.57
2022-10-18T11:13:05.152Z,10.82
2022-10-18T11:15:57.281Z,11.35
2022-10-18T11:18:47.214Z,11.30
2022-10-18T11:21:33.856Z,12.63
2022-10-18T11:24:20.324Z,11.50
2022-10-18T11:27:14.681Z,12.50
2022-10-18T11:30:23.900Z,11.98
2022-10-18T11:34:07.171Z,12.65
2022-10-18T11:37:25.932Z,14.60
2022-10-18T11:40:27.295Z,14.32
2022-10-18T11:43:14.047Z,14.57
2022-10-18T11:46:21.030Z,13.98
2022-10-18T11:49:28.664Z,13.98
2022-10-18T11:52:32.856Z,13.05
2022-10-18T11:55:21.778Z,13.80
2022-10-18T11:58:34.357Z,13.63
2022-10-18T12:01:39.289Z,13.80
2022-10-18T12:04:30.921Z,13.63
2022-10-18T12:07:23.393Z,13.55
2022-10-18T12:10:26.325Z,13.75
2022-10-18T12:13:35.327Z,13.83
2022-10-18T12:16:45.418Z,14.77
2022-10-18T12:19:34.564Z,14.68
2022-10-18T12:22:35.223Z,15.00
2022-10-18T12:25:21.050Z,14.23
2022-10-18T12:28:37.135Z,12.85
2022-10-18T12:31:53.074Z,12.73
2022-10-18T12:34:45.233Z,12.73
2022-10-18T12:38:04.805Z,12.07
2022-10-18T12:40:53.874Z,12.15
2022-10-18T12:43:40.103Z,12.63
2022-10-18T12:46:44.688Z,11.50
2022-10-18T12:49:40.151Z,11.77
2022-10-18T12:52:32.004Z,12.50
2022-10-18T12:55:21.703Z,11.93
2022-10-18T12:58:24.633Z,11.98
2022-10-18T13:01:10.933Z,11.63
2022-10-18T13:03:57.010Z,12.00
2022-10-18T13:07:05.446Z,11.65
2022-10-18T13:10:10.161Z,11.13
2022-10-18T13:13:45.655Z,11.98
2022-10-18T13:16:56.764Z,12.25
2022-10-18T13:20:20.523Z,10.65
2022-10-18T13:23:25.193Z,11.57
2022-10-18T13:26:23.679Z,11.60
2022-10-18T13:29:43.602Z,10.75
2022-10-18T13:32:44.894Z,11.77
2022-10-18T13:35:57.288Z,11.07
2022-10-18T13:38:47.212Z,11.55
2022-10-18T13:41:35.452Z,11.48
2022-10-18T13:44:38.334Z,12.02
2022-10-18T13:47:37.343Z,11.75
2022-10-18T13:50:34.246Z,12.25
2022-10-18T13:53:47.037Z,11.40
2022-10-18T13:56:39.037Z,11.90
2022-10-18T13:59:54.716Z,10.88
2022-10-18T14:03:51.880Z,11.13
2022-10-18T14:06:40.932Z,10.35
2022-10-18T14:09:43.537Z,10.45
2022-10-18T14:12:37.933Z,10.23
2022-10-18T14:15:33.816Z,9.90
2022-10-18T14:18:31.818Z,9.55
2022-10-18T14:21:31.122Z,10.15
2022-10-18T14:24:28.959Z,10.00
2022-10-18T14:27:19.142Z,9.10
2022-10-18T14:30:16.518Z,9.35
2022-10-18T14:33:02.851Z,9.30
2022-10-18T14:36:12.897Z,9.77
2022-10-18T14:39:04.363Z,10.27
2022-10-18T14:41:55.097Z,9.30
2022-10-18T14:44:41.197Z,9.60
2022-10-18T14:47:31.048Z,9.20
2022-10-18T14:50:30.659Z,8.38
2022-10-18T14:53:21.996Z,9.13
2022-10-18T14:56:15.922Z,7.82
2022-10-18T14:59:04.935Z,8.25
2022-10-18T15:01:56.683Z,8.50
2022-10-18T15:04:45.582Z,8.97
2022-10-18T15:07:32.742Z,9.75
2022-10-18T15:10:24.712Z,9.55
2022-10-18T15:13:13.355Z,8.63
2022-10-18T15:16:00.821Z,9.25
2022-10-18T15:19:02.875Z,9.40
2022-10-18T15:22:19.734Z,10.07
2022-10-18T15:25:15.896Z,9.27
2022-10-18T15:28:02.883Z,9.30
2022-10-18T15:30:48.677Z,9.57
2022-10-18T15:33:34.906Z,9.00
2022-10-18T15:36:29.518Z,9.48
2022-10-18T15:39:23.365Z,9.35
2022-10-18T15:42:38.493Z,9.73
2022-10-18T15:45:24.671Z,9.30
2022-10-18T15:48:12.978Z,9.43
2022-10-18T15:51:07.427Z,11.27
2022-10-18T15:53:55.010Z,11.15
2022-10-18T15:56:41.183Z,10.90
2022-10-18T15:59:31.167Z,11.05
2022-10-18T16:02:17.568Z,11.10
2022-10-18T16:05:04.174Z,11.00
2022-10-18T16:07:53.258Z,11.70
2022-10-18T16:10:39.211Z,11.63
2022-10-18T16:13:26.817Z,11.53
2022-10-18T16:16:22.355Z,11.55
2022-10-18T16:19:09.234Z,11.95
2022-10-18T16:21:55.232Z,12.10
2022-10-18T16:24:41.433Z,15.48
2022-10-18T16:27:26.961Z,12.75
2022-10-18T16:30:17.156Z,12.00
2022-10-18T16:33:02.934Z,11.95
2022-10-18T16:35:49.157Z,12.57
2022-10-18T16:38:36.852Z,12.65
2022-10-18T16:41:23.562Z,12.40
2022-10-18T16:44:09.445Z,13.00
2022-10-18T16:46:56.255Z,13.15
2022-10-18T16:49:43.901Z,33.88
2022-10-18T16:52:29.485Z,12.07
2022-10-18T16:55:21.280Z,12.32
2022-10-18T16:58:11.689Z,13.07
2022-10-18T17:00:58.582Z,13.85
2022-10-18T17:03:44.266Z,13.02
2022-10-18T17:06:32.841Z,13.70
2022-10-18T17:09:19.352Z,13.35
2022-10-18T17:12:05.863Z,12.35
2022-10-18T17:14:51.742Z,12.65
2022-10-18T17:17:38.451Z,11.75
2022-10-18T17:20:26.445Z,13.07
2022-10-18T17:23:12.589Z,12.60
2022-10-18T17:26:06.725Z,12.50
2022-10-18T17:28:57.845Z,12.48
2022-10-18T17:31:43.766Z,11.73
2022-10-18T17:34:29.586Z,12.90
2022-10-18T17:37:16.436Z,13.00
2022-10-18T17:40:02.997Z,12.98
2022-10-18T17:42:48.625Z,13.20
2022-10-18T17:45:35.001Z,13.40
2022-10-18T17:48:21.906Z,13.23
2022-10-18T17:51:10.039Z,14.15
2022-10-18T17:53:56.610Z,13.65
2022-10-18T17:56:42.655Z,13.43
2022-10-18T17:59:28.927Z,14.40
2022-10-18T18:02:14.534Z,72.07
2022-10-18T18:05:08.072Z,16.00
2022-10-18T18:07:54.668Z,14.00
2022-10-18T18:10:41.753Z,14.20
2022-10-18T18:13:28.053Z,13.70
2022-10-18T18:16:22.605Z,14.10
2022-10-18T18:19:10.131Z,14.63
2022-10-18T18:21:58.722Z,14.10
2022-10-18T18:24:44.989Z,14.45
2022-10-18T18:27:31.042Z,14.02
2022-10-18T18:30:18.055Z,14.38
2022-10-18T18:33:04.601Z,14.25
2022-10-18T18:35:58.545Z,14.93
2022-10-18T18:38:45.390Z,15.18
2022-10-18T18:41:31.745Z,14.83
2022-10-18T18:44:19.718Z,15.02
2022-10-18T18:47:12.284Z,15.55
2022-10-18T18:50:00.312Z,15.00
2022-10-18T18:52:46.669Z,15.60
2022-10-18T18:55:33.170Z,15.82
2022-10-18T18:58:19.352Z,15.88
2022-10-18T19:01:14.965Z,16.55
2022-10-18T19:04:01.389Z,15.32
2022-10-18T19:06:47.526Z,16.08
2022-10-18T19:09:33.533Z,15.87
2022-10-18T19:12:21.393Z,16.05
2022-10-18T19:15:08.026Z,16.38
2022-10-18T19:17:56.257Z,16.27
2022-10-18T19:20:43.071Z,15.77
2022-10-18T19:23:29.427Z,16.42
2022-10-18T19:26:25.745Z,16.42
2022-10-18T19:29:23.307Z,15.35
2022-10-18T19:32:15.042Z,15.75
2022-10-18T19:35:01.654Z,16.73
2022-10-18T19:37:47.913Z,16.55
2022-10-18T19:40:34.017Z,16.25
2022-10-18T19:43:20.780Z,24.00
2022-10-18T19:46:07.395Z,17.77
2022-10-18T19:48:54.368Z,17.98
2022-10-18T19:51:43.605Z,18.23
2022-10-18T19:54:29.771Z,17.52
2022-10-18T19:57:16.224Z,17.58
2022-10-18T20:00:05.453Z,17.20
2022-10-18T20:02:58.052Z,17.60
2022-10-18T20:05:43.636Z,17.60
2022-10-18T20:08:33.221Z,17.27
2022-10-18T20:11:22.349Z,17.65
2022-10-18T20:14:10.091Z,17.90
2022-10-18T20:16:56.078Z,18.00
2022-10-18T20:19:42.437Z,18.27
2022-10-18T20:22:31.903Z,18.63
2022-10-18T20:25:18.663Z,19.15
2022-10-18T20:28:05.377Z,20.35
2022-10-18T20:31:15.376Z,19.30
2022-10-18T20:34:05.174Z,18.92
2022-10-18T20:36:54.604Z,19.75
2022-10-18T20:39:40.659Z,19.73
2022-10-18T20:42:26.611Z,20.03
2022-10-18T20:45:15.720Z,18.90
2022-10-18T20:48:01.969Z,70.40
2022-10-18T20:50:47.583Z,19.75
2022-10-18T20:53:35.216Z,19.77
2022-10-18T20:56:24.020Z,19.55
2022-10-18T20:59:11.495Z,20.20
2022-10-18T21:01:57.548Z,20.27
2022-10-18T21:04:43.937Z,20.20
2022-10-18T21:07:33.668Z,19.38
2022-10-18T21:10:20.585Z,19.85
2022-10-18T21:13:06.793Z,22.20
2022-10-18T21:15:59.959Z,22.00
2022-10-18T21:18:45.841Z,21.47
2022-10-18T21:21:32.543Z,21.75
2022-10-18T21:24:20.167Z,22.92
2022-10-18T21:27:06.605Z,23.23
2022-10-18T21:29:53.068Z,22.48
2022-10-18T21:32:38.799Z,22.40
2022-10-18T21:35:25.566Z,22.10
2022-10-18T21:38:11.385Z,22.58
2022-10-18T21:40:57.690Z,22.53
2022-10-18T21:43:46.536Z,22.40
2022-10-18T21:46:33.140Z,23.73
2022-10-18T21:49:18.797Z,23.75
2022-10-18T21:52:05.468Z,23.00
2022-10-18T21:54:51.489Z,23.13
2022-10-18T21:57:37.587Z,23.13
2022-10-18T22:00:23.894Z,23.20
2022-10-18T22:03:13.098Z,24.77
2022-10-18T22:06:07.595Z,23.77
2022-10-18T22:08:56.652Z,23.70
2022-10-18T22:11:46.242Z,24.05
2022-10-18T22:14:32.268Z,24.65
2022-10-18T22:17:18.007Z,25.33
2022-10-18T22:20:03.723Z,23.98
2022-10-18T22:22:54.232Z,23.50
2022-10-18T22:25:40.236Z,23.45
2022-10-18T22:28:26.153Z,22.10
2022-10-18T22:31:21.996Z,38.40
2022-10-18T22:34:13.637Z,23.00
2022-10-18T22:36:59.916Z,23.50
2022-10-18T22:39:45.572Z,25.15
2022-10-18T22:42:31.955Z,24.65
2022-10-18T22:45:18.447Z,24.17
2022-10-18T22:48:05.330Z,23.77
2022-10-18T22:50:50.789Z,26.25
2022-10-18T22:53:38.326Z,25.92
2022-10-18T22:56:25.054Z,26.20
2022-10-18T22:59:11.324Z,26.92
2022-10-18T23:01:57.092Z,26.08
2022-10-18T23:04:42.954Z,26.15
2022-10-18T23:07:28.913Z,25.30
2022-10-18T23:10:14.993Z,25.05
2022-10-18T23:13:01.151Z,25.35
2022-10-18T23:15:46.867Z,25.15
2022-10-18T23:18:33.237Z,24.17
2022-10-18T23:21:20.920Z,24.73
2022-10-18T23:24:07.419Z,24.35
2022-10-18T23:26:53.146Z,24.70
2022-10-18T23:29:41.629Z,24.83
2022-10-18T23:32:28.578Z,25.08
2022-10-18T23:35:15.426Z,24.77
2022-10-18T23:38:01.224Z,25.40
2022-10-18T23:40:47.544Z,25.20
2022-10-18T23:43:34.274Z,25.33
2022-10-18T23:46:21.597Z,23.45
2022-10-18T23:49:07.502Z,24.88
2022-10-18T23:51:53.414Z,25.15
2022-10-18T23:54:39.406Z,25.48
2022-10-18T23:57:25.459Z,25.17
